Time;durP1;ratioP1;P1;durP2;ratioP2;P2;SDS_P1;SDS_P2;PMS_P1;PMS_P2;Temp;Humidity;BMP_temperature;BMP_pressure;BME280_temperature;BME280_humidity;BME280_pressure;Samples;Min_cycle;Max_cycle;Signal;HPM_P1;HPM_P2
2024/01/10 00:00:17;;;;;;;2.40;1.40;;;17.90;51.80;;;;;;5040041;28;20079;-68
2024/01/10 00:02:42;;;;;;;2.33;1.27;;;17.90;51.30;;;;;;5038840;28;20036;-68
2024/01/10 00:05:08;;;;;;;2.33;1.48;;;17.90;51.20;;;;;;5042143;28;20018;-68
2024/01/10 00:07:36;;;;;;;2.25;1.40;;;17.90;51.10;;;;;;5034924;28;20094;-67
2024/01/10 00:10:02;;;;;;;2.03;1.30;;;17.90;51.20;;;;;;5037943;28;20021;-67
2024/01/10 00:12:33;;;;;;;2.67;1.60;;;17.90;51.10;;;;;;5039775;28;20483;-68
2024/01/10 00:14:58;;;;;;;2.30;1.40;;;17.80;51.10;;;;;;5037699;28;20057;-68
2024/01/10 00:17:24;;;;;;;2.30;1.40;;;17.80;51.50;;;;;;5038782;28;20071;-68
2024/01/10 00:19:49;;;;;;;2.53;1.55;;;17.80;51.10;;;;;;5038688;28;20423;-65
2024/01/10 00:22:15;;;;;;;2.47;1.50;;;17.80;51.00;;;;;;5038427;28;20029;-66
2024/01/10 00:24:41;;;;;;;3.47;1.40;;;17.80;51.00;;;;;;5041088;28;20075;-65
2024/01/10 00:27:06;;;;;;;2.10;1.13;;;17.80;51.00;;;;;;5040655;28;20362;-65
2024/01/10 00:29:32;;;;;;;2.35;1.38;;;17.80;50.90;;;;;;5040185;28;20055;-65
2024/01/10 00:31:59;;;;;;;2.60;1.52;;;17.80;50.90;;;;;;5038141;28;20445;-66
2024/01/10 00:34:25;;;;;;;2.70;1.58;;;17.80;50.90;;;;;;5037114;28;20112;-65
2024/01/10 00:36:50;;;;;;;2.00;1.30;;;17.80;50.90;;;;;;5039520;28;20112;-66
2024/01/10 00:39:16;;;;;;;1.83;1.23;;;17.80;50.90;;;;;;5036838;28;20048;-65
2024/01/10 00:41:42;;;;;;;2.65;1.50;;;17.80;50.90;;;;;;5035926;28;20040;-65
2024/01/10 00:44:11;;;;;;;2.20;1.50;;;17.80;50.80;;;;;;5038504;28;20052;-65
2024/01/10 00:46:36;;;;;;;2.85;1.58;;;17.80;50.80;;;;;;5036849;28;20068;-65
2024/01/10 00:49:02;;;;;;;2.47;1.52;;;17.80;50.80;;;;;;5039184;28;20081;-66
2024/01/10 00:51:28;;;;;;;2.20;1.40;;;17.80;50.80;;;;;;5040628;28;20052;-66
2024/01/10 00:53:53;;;;;;;2.97;1.70;;;17.80;50.80;;;;;;5038596;28;20060;-66
2024/01/10 00:56:19;;;;;;;2.30;1.50;;;17.80;50.80;;;;;;5039119;28;20082;-66
2024/01/10 00:58:44;;;;;;;2.63;1.65;;;17.70;50.70;;;;;;5038800;28;20041;-65
2024/01/10 01:01:10;;;;;;;3.42;1.67;;;17.80;50.80;;;;;;5037362;28;20159;-65
2024/01/10 01:03:36;;;;;;;2.28;1.40;;;17.80;50.80;;;;;;5039537;28;20036;-66
2024/01/10 01:06:01;;;;;;;2.40;1.60;;;17.80;50.80;;;;;;5040922;28;20059;-65
2024/01/10 01:08:27;;;;;;;2.63;1.30;;;17.80;50.70;;;;;;5037087;28;20040;-65
2024/01/10 01:10:53;;;;;;;2.42;1.40;;;17.70;50.70;;;;;;5039080;28;20112;-65
2024/01/10 01:13:18;;;;;;;2.33;1.50;;;17.70;50.70;;;;;;5037108;28;20086;-64
2024/01/10 01:15:44;;;;;;;2.80;1.50;;;17.70;50.70;;;;;;5037870;28;20040;-64
2024/01/10 01:18:12;;;;;;;2.25;1.40;;;17.70;50.70;;;;;;5037567;28;20037;-64
2024/01/10 01:20:38;;;;;;;2.63;1.50;;;17.70;50.70;;;;;;5036437;28;20048;-65
2024/01/10 01:23:03;;;;;;;2.78;1.60;;;17.70;51.20;;;;;;5034913;28;20041;-65
2024/01/10 01:25:29;;;;;;;2.90;1.50;;;17.70;50.70;;;;;;5035449;28;20503;-64
2024/01/10 01:27:55;;;;;;;2.20;1.40;;;17.70;50.70;;;;;;5036948;28;20100;-64
2024/01/10 01:30:21;;;;;;;2.83;1.60;;;17.70;50.80;;;;;;5037470;28;20028;-65
2024/01/10 01:32:47;;;;;;;2.88;1.70;;;17.60;50.70;;;;;;5036166;28;20025;-66
2024/01/10 01:35:12;;;;;;;2.38;1.50;;;17.60;50.70;;;;;;5037249;28;20401;-66
2024/01/10 01:37:38;;;;;;;2.60;1.70;;;17.60;50.70;;;;;;5035396;28;20029;-66
2024/01/10 01:40:04;;;;;;;2.42;1.40;;;17.60;50.70;;;;;;5038035;28;20033;-65
2024/01/10 01:42:30;;;;;;;2.88;1.60;;;17.60;50.70;;;;;;5037869;28;20036;-66
2024/01/10 01:44:56;;;;;;;2.95;1.70;;;17.60;50.70;;;;;;5039377;28;20549;-65
2024/01/10 01:47:21;;;;;;;2.72;1.67;;;17.60;50.70;;;;;;5040761;28;20473;-65
2024/01/10 01:49:47;;;;;;;2.53;1.50;;;17.60;50.70;;;;;;5036244;28;20029;-65
2024/01/10 01:52:13;;;;;;;2.38;1.40;;;17.60;50.70;;;;;;5036337;28;20482;-65
2024/01/10 01:54:39;;;;;;;2.53;1.50;;;17.60;50.70;;;;;;5035102;28;20381;-65
2024/01/10 01:57:05;;;;;;;3.30;1.77;;;17.60;50.70;;;;;;5039482;28;20520;-65
2024/01/10 01:59:31;;;;;;;1.98;1.30;;;17.60;50.70;;;;;;5040220;28;20057;-66
2024/01/10 02:02:00;;;;;;;2.63;1.50;;;17.60;50.70;;;;;;5041613;28;20039;-65
2024/01/10 02:04:27;;;;;;;2.58;1.60;;;17.50;50.70;;;;;;5041290;28;20017;-66
2024/01/10 02:06:53;;;;;;;2.20;1.48;;;17.60;50.80;;;;;;5042875;28;20033;-65
2024/01/10 02:09:19;;;;;;;2.50;1.45;;;17.60;50.70;;;;;;5041679;28;20092;-66
2024/01/10 02:11:44;;;;;;;2.28;1.40;;;17.50;50.70;;;;;;5040707;28;20029;-65
2024/01/10 02:14:10;;;;;;;2.75;1.75;;;17.50;50.70;;;;;;5039453;28;20025;-65
2024/01/10 02:16:36;;;;;;;2.50;1.42;;;17.60;50.70;;;;;;5043353;28;20514;-66
2024/01/10 02:19:16;;;;;;;2.10;1.40;;;17.50;50.70;;;;;;5041476;28;20036;-65
2024/01/10 02:21:42;;;;;;;2.00;1.25;;;17.50;50.70;;;;;;5041701;28;20029;-65
2024/01/10 02:24:08;;;;;;;2.28;1.58;;;17.50;50.80;;;;;;5038400;28;20477;-64
2024/01/10 02:26:33;;;;;;;2.70;1.48;;;17.50;50.70;;;;;;5040879;28;20036;-64
2024/01/10 02:28:59;;;;;;;2.00;1.42;;;17.50;50.80;;;;;;5040690;28;20472;-64
2024/01/10 02:31:27;;;;;;;2.38;1.40;;;17.50;50.70;;;;;;5039088;28;20032;-66
2024/01/10 02:33:52;;;;;;;2.50;1.50;;;17.50;50.80;;;;;;5040395;28;20493;-64
2024/01/10 02:36:18;;;;;;;2.63;1.50;;;17.50;50.80;;;;;;5040130;28;20052;-64
2024/01/10 02:38:44;;;;;;;2.40;1.50;;;17.50;50.80;;;;;;5040249;28;20378;-64
2024/01/10 02:41:09;;;;;;;2.60;1.52;;;17.50;50.80;;;;;;5041175;28;20109;-66
2024/01/10 02:43:35;;;;;;;2.67;1.70;;;17.50;50.80;;;;;;5040204;28;20427;-65
2024/01/10 02:46:00;;;;;;;3.22;2.00;;;17.50;50.80;;;;;;5041957;28;20022;-65
2024/01/10 02:48:26;;;;;;;2.42;1.63;;;17.40;50.80;;;;;;5042212;28;20167;-65
2024/01/10 02:50:51;;;;;;;2.55;1.52;;;17.40;50.80;;;;;;5040355;28;20501;-64
2024/01/10 02:53:17;;;;;;;3.05;1.80;;;17.50;50.80;;;;;;5039867;28;20120;-64
2024/01/10 02:55:43;;;;;;;2.47;1.60;;;17.40;50.80;;;;;;5040673;28;20439;-64
2024/01/10 02:58:09;;;;;;;2.00;1.33;;;17.40;50.80;;;;;;5041350;28;20616;-65
2024/01/10 03:00:34;;;;;;;2.58;1.70;;;17.40;50.80;;;;;;5038716;28;20146;-65
2024/01/10 03:03:00;;;;;;;2.10;1.50;;;17.40;50.80;;;;;;5039346;28;20498;-64
2024/01/10 03:05:26;;;;;;;2.85;1.75;;;17.40;50.80;;;;;;5039527;28;20029;-64
2024/01/10 03:07:51;;;;;;;2.90;1.70;;;17.40;50.80;;;;;;5039625;28;20029;-65
2024/01/10 03:10:17;;;;;;;2.28;1.50;;;17.40;50.80;;;;;;5035718;28;20498;-65
2024/01/10 03:12:43;;;;;;;2.60;1.70;;;17.40;50.80;;;;;;5038884;28;20029;-65
2024/01/10 03:15:09;;;;;;;2.42;1.60;;;17.40;50.80;;;;;;5039420;28;20034;-64
2024/01/10 03:17:35;;;;;;;2.80;1.63;;;17.40;50.80;;;;;;5041323;28;20036;-64
2024/01/10 03:20:03;;;;;;;2.92;1.90;;;17.40;50.80;;;;;;5040398;28;20083;-65
2024/01/10 03:22:30;;;;;;;2.35;1.60;;;17.40;50.90;;;;;;5041610;28;20041;-65
2024/01/10 03:24:56;;;;;;;2.28;1.50;;;17.40;50.90;;;;;;5034526;28;20481;-64
2024/01/10 03:27:22;;;;;;;2.58;1.80;;;17.40;50.90;;;;;;5037799;28;20031;-66
2024/01/10 03:29:47;;;;;;;2.53;1.60;;;17.40;50.90;;;;;;5038902;28;20892;-64
2024/01/10 03:32:13;;;;;;;2.40;1.50;;;17.40;50.90;;;;;;5042666;28;20115;-64
2024/01/10 03:34:40;;;;;;;2.50;1.63;;;17.40;50.90;;;;;;5041362;28;20032;-64
2024/01/10 03:37:06;;;;;;;2.80;1.70;;;17.40;50.90;;;;;;5034817;28;20120;-64
2024/01/10 03:39:32;;;;;;;2.70;1.80;;;17.40;51.00;;;;;;5035627;28;20104;-65
2024/01/10 03:41:57;;;;;;;2.63;1.70;;;17.30;51.40;;;;;;5035884;28;20090;-64
2024/01/10 03:44:23;;;;;;;2.28;1.52;;;17.30;50.90;;;;;;5036842;28;20047;-65
2024/01/10 03:46:48;;;;;;;2.58;1.80;;;17.30;50.90;;;;;;5040055;28;20100;-64
2024/01/10 03:49:14;;;;;;;4.05;1.80;;;17.30;51.00;;;;;;5039712;28;20477;-64
2024/01/10 03:51:40;;;;;;;2.73;1.80;;;17.30;51.00;;;;;;5000148;28;1101361;-67
2024/01/10 03:54:06;;;;;;;2.65;1.50;;;17.30;51.00;;;;;;5037944;28;20099;-67
2024/01/10 03:56:31;;;;;;;3.08;1.92;;;17.30;50.90;;;;;;5038218;28;20060;-67
2024/01/10 03:58:57;;;;;;;2.70;1.77;;;17.30;51.00;;;;;;5039104;28;20021;-68
2024/01/10 04:01:23;;;;;;;2.42;1.50;;;17.30;51.00;;;;;;5036284;28;20029;-67
2024/01/10 04:03:49;;;;;;;2.40;1.50;;;17.30;51.00;;;;;;5038554;28;20104;-67
2024/01/10 04:06:15;;;;;;;2.83;1.70;;;17.30;51.00;;;;;;5038908;28;20175;-68
2024/01/10 04:08:40;;;;;;;2.75;1.75;;;17.30;51.00;;;;;;5038137;28;20040;-68
2024/01/10 04:11:06;;;;;;;2.58;1.50;;;17.30;51.00;;;;;;5037310;28;20036;-67
2024/01/10 04:13:31;;;;;;;2.58;1.52;;;17.30;51.00;;;;;;5055626;28;20029;-67
2024/01/10 04:15:57;;;;;;;2.60;1.60;;;17.30;51.00;;;;;;5039992;28;20389;-68
2024/01/10 04:18:23;;;;;;;2.15;1.40;;;17.30;51.00;;;;;;5036505;28;20033;-67
2024/01/10 04:20:49;;;;;;;2.72;1.60;;;17.30;51.00;;;;;;5039176;28;20029;-68
2024/01/10 04:23:15;;;;;;;2.65;1.52;;;17.30;51.00;;;;;;5037963;28;20426;-67
2024/01/10 04:25:40;;;;;;;2.83;1.77;;;17.30;51.00;;;;;;5036515;28;20086;-67
2024/01/10 04:28:06;;;;;;;2.30;1.50;;;17.30;51.10;;;;;;5039515;28;20062;-67
2024/01/10 04:30:32;;;;;;;2.15;1.40;;;17.30;51.00;;;;;;5037652;28;20051;-68
2024/01/10 04:32:58;;;;;;;1.95;1.50;;;17.30;51.10;;;;;;5038866;28;20029;-68
2024/01/10 04:35:23;;;;;;;2.90;1.80;;;17.30;51.00;;;;;;5037306;28;20072;-67
2024/01/10 04:37:49;;;;;;;2.75;1.52;;;17.30;51.10;;;;;;5039291;28;20056;-68
2024/01/10 04:40:15;;;;;;;2.38;1.55;;;17.30;51.10;;;;;;5036910;28;20413;-68
2024/01/10 04:42:40;;;;;;;2.78;1.63;;;17.30;51.10;;;;;;5040227;28;20025;-65
2024/01/10 04:45:07;;;;;;;2.70;1.60;;;17.30;51.10;;;;;;5040929;28;20021;-65
2024/01/10 04:47:33;;;;;;;2.80;1.60;;;17.30;51.10;;;;;;5039596;28;20035;-64
2024/01/10 04:49:58;;;;;;;3.03;1.63;;;17.30;51.10;;;;;;5040184;28;20037;-65
2024/01/10 04:52:24;;;;;;;2.70;1.50;;;17.30;51.10;;;;;;5038712;28;20043;-65
2024/01/10 04:54:49;;;;;;;3.22;1.75;;;17.30;51.60;;;;;;5036356;28;20029;-65
2024/01/10 04:57:15;;;;;;;2.55;1.40;;;17.20;51.10;;;;;;5035350;28;20025;-64
2024/01/10 04:59:41;;;;;;;2.97;1.70;;;17.30;51.10;;;;;;5037935;28;20047;-64
2024/01/10 05:02:07;;;;;;;2.80;1.60;;;17.30;51.10;;;;;;5038586;28;20021;-67
2024/01/10 05:04:33;;;;;;;2.72;1.77;;;17.20;51.10;;;;;;5039177;28;20741;-68
2024/01/10 05:06:58;;;;;;;2.38;1.58;;;17.30;51.10;;;;;;5037239;28;20037;-68
2024/01/10 05:09:24;;;;;;;2.80;1.60;;;17.20;51.10;;;;;;5034695;28;20489;-67
2024/01/10 05:11:51;;;;;;;2.22;1.42;;;17.30;51.20;;;;;;5038887;28;20131;-68
2024/01/10 05:14:19;;;;;;;3.08;1.83;;;17.30;51.20;;;;;;5039050;28;20040;-68
2024/01/10 05:16:45;;;;;;;3.00;1.80;;;17.30;51.20;;;;;;5038527;28;20028;-68
2024/01/10 05:19:11;;;;;;;2.63;1.70;;;17.30;51.20;;;;;;5040083;28;20028;-68
2024/01/10 05:21:36;;;;;;;2.53;1.63;;;17.30;51.20;;;;;;5038076;28;20393;-68
2024/01/10 05:24:03;;;;;;;2.90;1.80;;;17.20;51.20;;;;;;5039555;28;20040;-68
2024/01/10 05:26:29;;;;;;;2.55;1.70;;;17.30;51.20;;;;;;5037444;28;20021;-68
2024/01/10 05:28:54;;;;;;;2.53;1.65;;;17.30;51.20;;;;;;5037380;28;20468;-68
2024/01/10 05:31:20;;;;;;;2.78;1.70;;;17.30;51.20;;;;;;5034676;28;20022;-67
2024/01/10 05:33:46;;;;;;;2.80;1.80;;;17.20;51.20;;;;;;5035370;28;20036;-67
2024/01/10 05:36:11;;;;;;;3.17;1.73;;;17.20;51.20;;;;;;5051656;28;20555;-68
2024/01/10 05:38:37;;;;;;;3.45;1.90;;;17.30;51.80;;;;;;5036770;28;20107;-68
2024/01/10 05:41:03;;;;;;;3.00;1.90;;;17.30;51.30;;;;;;5034823;28;20033;-67
2024/01/10 05:43:29;;;;;;;2.80;1.80;;;17.30;51.40;;;;;;5037852;28;20033;-67
2024/01/10 05:45:54;;;;;;;3.20;1.85;;;17.30;51.40;;;;;;5037102;28;20019;-67
2024/01/10 05:48:20;;;;;;;2.83;2.00;;;17.20;51.30;;;;;;5038417;28;20113;-67
2024/01/10 05:50:46;;;;;;;2.58;1.75;;;17.20;51.30;;;;;;5039041;28;20028;-66
2024/01/10 05:53:13;;;;;;;2.70;1.80;;;17.20;51.30;;;;;;5036613;28;20036;-66
2024/01/10 05:55:39;;;;;;;3.05;1.70;;;17.20;51.40;;;;;;5034605;28;20025;-66
2024/01/10 05:58:05;;;;;;;3.35;2.00;;;17.30;51.90;;;;;;5035757;28;20040;-66
2024/01/10 06:00:31;;;;;;;3.13;1.83;;;17.30;51.40;;;;;;5035845;28;20039;-66
2024/01/10 06:02:56;;;;;;;3.30;2.05;;;17.20;51.40;;;;;;5039627;28;20101;-66
2024/01/10 06:05:22;;;;;;;3.03;2.00;;;17.30;51.50;;;;;;5039436;28;20056;-66
2024/01/10 06:07:47;;;;;;;2.92;1.83;;;17.30;51.50;;;;;;5035709;28;20032;-66
2024/01/10 06:10:13;;;;;;;3.28;2.08;;;17.30;51.50;;;;;;5032676;28;20049;-66
2024/01/10 06:12:38;;;;;;;2.58;1.70;;;17.30;51.50;;;;;;5040431;28;20087;-64
2024/01/10 06:15:06;;;;;;;5.50;1.95;;;17.30;51.50;;;;;;5037331;28;20039;-65
2024/01/10 06:17:31;;;;;;;3.10;1.98;;;17.30;51.50;;;;;;5036850;28;20036;-65
2024/01/10 06:19:59;;;;;;;3.03;1.85;;;17.30;51.50;;;;;;5037184;28;20033;-65
2024/01/10 06:22:26;;;;;;;2.95;1.80;;;17.30;51.60;;;;;;5038565;28;20049;-66
2024/01/10 06:24:51;;;;;;;2.67;1.95;;;17.30;51.60;;;;;;5035727;28;20071;-65
2024/01/10 06:27:18;;;;;;;3.30;2.10;;;17.30;51.60;;;;;;5037080;28;20696;-64
2024/01/10 06:29:44;;;;;;;3.70;2.10;;;17.30;51.60;;;;;;5035948;28;20017;-64
2024/01/10 06:32:11;;;;;;;4.00;1.90;;;17.30;51.60;;;;;;5039814;28;20465;-65
2024/01/10 06:34:36;;;;;;;2.85;1.88;;;17.30;51.60;;;;;;5038708;28;20028;-64
2024/01/10 06:37:02;;;;;;;3.17;2.00;;;17.30;51.60;;;;;;5037709;28;20028;-65
2024/01/10 06:39:27;;;;;;;3.08;2.05;;;17.30;51.60;;;;;;5038619;28;20132;-65
2024/01/10 06:41:58;;;;;;;2.80;1.75;;;17.30;51.60;;;;;;5034756;28;20092;-65
2024/01/10 06:44:24;;;;;;;3.40;1.80;;;17.30;51.60;;;;;;5034180;28;20120;-65
2024/01/10 06:46:49;;;;;;;2.85;2.10;;;17.30;51.60;;;;;;5042592;28;20532;-65
2024/01/10 06:49:16;;;;;;;3.33;2.08;;;17.30;51.90;;;;;;5043185;28;20388;-66
2024/01/10 06:51:41;;;;;;;3.83;2.03;;;17.40;53.30;;;;;;5038774;28;20489;-66
2024/01/10 06:54:08;;;;;;;3.60;2.22;;;17.60;53.30;;;;;;5038058;28;20029;-66
2024/01/10 06:56:35;;;;;;;4.45;2.40;;;17.80;53.20;;;;;;5037672;28;20395;-66
2024/01/10 06:59:01;;;;;;;3.03;1.85;;;18.00;53.10;;;;;;5041044;28;20017;-66
2024/01/10 07:01:27;;;;;;;3.95;2.00;;;18.20;53.00;;;;;;5040643;28;20021;-66
2024/01/10 07:03:56;;;;;;;3.40;2.03;;;18.40;53.10;;;;;;5040514;28;20024;-65
2024/01/10 07:06:22;;;;;;;2.53;1.70;;;18.60;52.80;;;;;;5040998;28;20033;-66
2024/01/10 07:08:49;;;;;;;3.00;1.80;;;18.70;52.70;;;;;;5040331;28;20045;-66
2024/01/10 07:11:15;;;;;;;2.78;1.85;;;18.90;52.50;;;;;;5035930;28;20045;-66
2024/01/10 07:13:41;;;;;;;2.83;1.70;;;19.10;52.30;;;;;;5039508;28;20439;-66
2024/01/10 07:16:08;;;;;;;3.40;2.10;;;19.20;52.10;;;;;;5040561;28;20021;-66
2024/01/10 07:18:34;;;;;;;3.08;1.92;;;19.30;51.90;;;;;;5040060;28;20040;-66
2024/01/10 07:20:59;;;;;;;3.20;1.63;;;19.40;52.00;;;;;;5041741;28;20037;-66
2024/01/10 07:23:25;;;;;;;2.72;1.65;;;19.50;51.80;;;;;;5039923;28;20030;-67
2024/01/10 07:25:51;;;;;;;3.80;1.75;;;19.70;51.90;;;;;;5036968;28;20389;-67
2024/01/10 07:28:18;;;;;;;2.78;1.67;;;19.80;51.60;;;;;;5041366;28;20021;-67
2024/01/10 07:30:44;;;;;;;2.45;1.60;;;20.00;52.00;;;;;;5040537;28;20563;-67
2024/01/10 07:33:11;;;;;;;1.88;1.27;;;20.10;51.40;;;;;;5040943;28;20041;-66
2024/01/10 07:35:38;;;;;;;1.73;1.25;;;20.00;51.50;;;;;;5039697;28;20029;-66
2024/01/10 07:38:04;;;;;;;2.35;1.30;;;20.00;51.70;;;;;;5038536;28;20464;-66
2024/01/10 07:40:29;;;;;;;2.58;1.40;;;19.90;52.00;;;;;;5037163;28;20040;-66
2024/01/10 07:42:55;;;;;;;1.88;1.25;;;19.80;52.10;;;;;;5040299;28;20089;-66
2024/01/10 07:45:22;;;;;;;1.92;1.10;;;19.80;52.30;;;;;;5039746;28;20847;-66
2024/01/10 07:47:48;;;;;;;2.30;1.40;;;19.80;52.50;;;;;;5040784;28;20681;-67
2024/01/10 07:50:14;;;;;;;2.08;1.23;;;19.80;52.70;;;;;;5041293;28;20044;-66
2024/01/10 07:52:40;;;;;;;2.63;1.33;;;19.70;52.70;;;;;;5041017;28;20039;-66
2024/01/10 07:55:06;;;;;;;1.80;1.30;;;19.80;52.70;;;;;;5038060;28;20026;-66
2024/01/10 07:57:36;;;;;;;1.80;1.20;;;19.80;52.80;;;;;;5035786;28;20083;-66
2024/01/10 08:00:10;;;;;;;1.95;1.40;;;19.80;52.80;;;;;;5037818;28;20021;-66
2024/01/10 08:02:36;;;;;;;2.25;1.30;;;19.80;52.80;;;;;;5039843;28;20035;-66
2024/01/10 08:05:08;;;;;;;2.38;1.38;;;19.80;52.80;;;;;;5039651;28;20029;-66
2024/01/10 08:07:34;;;;;;;2.78;1.30;;;19.80;53.40;;;;;;5039926;28;20025;-66
2024/01/10 08:10:04;;;;;;;2.22;1.20;;;19.80;52.80;;;;;;5041285;28;20022;-66
2024/01/10 08:12:30;;;;;;;2.35;1.30;;;19.80;53.00;;;;;;5033905;28;20105;-66
2024/01/10 08:14:55;;;;;;;1.67;1.17;;;19.80;53.20;;;;;;5041141;28;20456;-66
2024/01/10 08:17:21;;;;;;;2.40;1.27;;;19.80;53.20;;;;;;5038801;28;20032;-66
2024/01/10 08:19:46;;;;;;;2.65;1.60;;;19.90;52.20;;;;;;5039444;28;20463;-66
2024/01/10 08:22:13;;;;;;;3.15;2.00;;;19.90;51.20;;;;;;5040626;28;20024;-66
2024/01/10 08:24:39;;;;;;;3.15;1.90;;;19.80;50.30;;;;;;5039394;28;20151;-66
2024/01/10 08:27:04;;;;;;;2.78;1.77;;;19.80;49.70;;;;;;5037407;28;20021;-66
2024/01/10 08:29:31;;;;;;;2.30;1.52;;;19.80;50.10;;;;;;5039739;28;20112;-66
2024/01/10 08:31:57;;;;;;;3.22;1.70;;;19.70;50.30;;;;;;5041435;28;20110;-66
2024/01/10 08:34:23;;;;;;;2.72;1.65;;;19.80;50.60;;;;;;5038757;28;20094;-66
2024/01/10 08:36:51;;;;;;;2.15;1.48;;;19.80;50.80;;;;;;5038129;28;20619;-67
2024/01/10 08:39:17;;;;;;;2.33;1.53;;;19.80;51.10;;;;;;5036289;28;20040;-66
2024/01/10 08:41:44;;;;;;;3.78;1.80;;;19.80;51.70;;;;;;5031908;28;20017;-66
2024/01/10 08:44:12;;;;;;;2.90;1.70;;;19.80;51.50;;;;;;5038382;28;20074;-66
2024/01/10 08:46:38;;;;;;;2.33;1.40;;;19.80;51.60;;;;;;5038437;28;20333;-67
2024/01/10 08:49:03;;;;;;;2.20;1.42;;;19.90;51.90;;;;;;5039427;28;20128;-67
2024/01/10 08:51:29;;;;;;;2.90;1.80;;;19.90;51.90;;;;;;5037671;28;20040;-67
2024/01/10 08:53:56;;;;;;;2.17;1.42;;;19.90;52.10;;;;;;5037731;28;20033;-66
2024/01/10 08:56:22;;;;;;;2.47;1.58;;;19.90;52.20;;;;;;5038356;28;20550;-67
2024/01/10 08:58:47;;;;;;;2.53;1.52;;;19.90;52.50;;;;;;5038434;28;20120;-67
2024/01/10 09:01:13;;;;;;;2.13;1.38;;;19.90;52.60;;;;;;5039808;28;20030;-67
2024/01/10 09:03:39;;;;;;;2.25;1.40;;;19.90;52.60;;;;;;5037023;28;20500;-67
2024/01/10 09:06:07;;;;;;;2.42;1.40;;;20.00;52.70;;;;;;5038559;28;20368;-67
2024/01/10 09:08:33;;;;;;;2.00;1.33;;;19.90;52.60;;;;;;5041334;28;20519;-67
2024/01/10 09:11:04;;;;;;;2.33;1.48;;;20.00;52.80;;;;;;5039345;28;20021;-67
2024/01/10 09:13:29;;;;;;;2.45;1.40;;;20.00;52.80;;;;;;5037469;28;20499;-67
2024/01/10 09:15:55;;;;;;;2.85;2.03;;;20.00;52.90;;;;;;5038707;28;20028;-66
2024/01/10 09:18:21;;;;;;;3.42;2.10;;;20.00;51.30;;;;;;5037325;28;20029;-66
2024/01/10 09:20:47;;;;;;;3.33;2.10;;;20.00;49.90;;;;;;5038471;28;20064;-66
2024/01/10 09:23:14;;;;;;;2.92;1.98;;;19.90;49.40;;;;;;5034509;28;20440;-65
2024/01/10 09:25:39;;;;;;;3.40;1.95;;;19.90;49.20;;;;;;5036691;28;20021;-65
2024/01/10 09:28:05;;;;;;;3.22;2.13;;;19.80;49.00;;;;;;5035149;28;20385;-65
2024/01/10 09:30:31;;;;;;;2.90;2.00;;;19.80;49.10;;;;;;5038260;28;20033;-65
2024/01/10 09:32:56;;;;;;;2.72;1.70;;;19.90;49.70;;;;;;5038434;28;20036;-65
2024/01/10 09:35:22;;;;;;;2.85;1.98;;;20.10;49.70;;;;;;5038541;28;20358;-66
2024/01/10 09:37:49;;;;;;;2.40;1.70;;;20.40;49.60;;;;;;5036277;28;20190;-66
2024/01/10 09:40:16;;;;;;;2.70;1.50;;;20.70;49.40;;;;;;5038136;28;20033;-66
2024/01/10 09:42:44;;;;;;;3.17;1.70;;;20.90;49.10;;;;;;5037448;28;20065;-63
2024/01/10 09:45:12;;;;;;;2.80;1.67;;;21.20;49.10;;;;;;5039230;28;20017;-65
2024/01/10 09:47:39;;;;;;;3.10;1.70;;;21.30;49.10;;;;;;5035391;28;20028;-63
2024/01/10 09:50:07;;;;;;;2.55;1.35;;;21.40;49.00;;;;;;5035849;28;20111;-63
2024/01/10 09:52:41;;;;;;;2.45;1.55;;;21.60;49.20;;;;;;5037894;28;20029;-64
2024/01/10 09:55:08;;;;;;;2.17;1.35;;;21.70;49.30;;;;;;5035722;28;20369;-63
2024/01/10 09:57:36;;;;;;;2.20;1.50;;;21.90;49.10;;;;;;5037222;28;20392;-64
2024/01/10 10:00:04;;;;;;;2.28;1.50;;;22.00;49.00;;;;;;5038774;28;20076;-63
2024/01/10 10:02:32;;;;;;;2.28;1.50;;;22.20;49.00;;;;;;5037051;28;20031;-65
2024/01/10 10:05:12;;;;;;;2.28;1.50;;;22.20;49.10;;;;;;5037430;28;20048;-63
2024/01/10 10:07:48;;;;;;;2.92;1.90;;;22.20;49.20;;;;;;5037845;28;20438;-63
2024/01/10 10:10:15;;;;;;;3.10;2.35;;;22.20;48.60;;;;;;5038374;28;20026;-64
2024/01/10 10:12:55;;;;;;;3.00;2.03;;;22.00;47.20;;;;;;5034781;28;20167;-63
2024/01/10 10:15:27;;;;;;;2.25;1.60;;;21.80;47.60;;;;;;5038725;28;20549;-63
2024/01/10 10:17:53;;;;;;;2.70;1.70;;;21.70;47.70;;;;;;5035883;28;20029;-63
2024/01/10 10:20:27;;;;;;;2.92;1.55;;;21.70;48.10;;;;;;5038868;28;20029;-63
2024/01/10 10:23:07;;;;;;;3.15;1.63;;;21.60;48.50;;;;;;5042574;28;20025;-63
2024/01/10 10:25:42;;;;;;;2.75;1.52;;;21.60;48.80;;;;;;5040812;28;20025;-63
2024/01/10 10:28:07;;;;;;;4.35;1.67;;;21.60;49.00;;;;;;5039294;28;20040;-63
2024/01/10 10:30:33;;;;;;;2.70;1.73;;;21.60;49.70;;;;;;5039340;28;20064;-63
2024/01/10 10:32:59;;;;;;;2.80;1.50;;;21.60;49.30;;;;;;5054915;28;20480;-68
2024/01/10 10:35:25;;;;;;;2.78;1.55;;;21.60;49.40;;;;;;5043525;28;20020;-68
2024/01/10 10:37:52;;;;;;;2.72;1.52;;;21.50;49.50;;;;;;5041300;28;20111;-68
2024/01/10 10:40:19;;;;;;;2.45;1.42;;;21.50;49.70;;;;;;5043073;28;20036;-67
2024/01/10 10:42:49;;;;;;;2.63;1.60;;;21.60;49.80;;;;;;5038723;28;20033;-67
2024/01/10 10:45:19;;;;;;;3.25;1.70;;;21.50;49.90;;;;;;5041498;28;20429;-67
2024/01/10 10:47:49;;;;;;;2.28;1.50;;;21.60;50.10;;;;;;5039682;28;20017;-67
2024/01/10 10:50:23;;;;;;;3.67;1.67;;;21.50;50.00;;;;;;5040904;28;20021;-66
2024/01/10 10:52:50;;;;;;;3.35;1.88;;;21.60;50.10;;;;;;5038537;28;20045;-62
2024/01/10 10:55:17;;;;;;;2.28;1.50;;;21.80;50.00;;;;;;5042747;28;20037;-63
2024/01/10 10:57:47;;;;;;;2.45;1.55;;;21.90;49.90;;;;;;5039486;28;20064;-61
2024/01/10 11:00:17;;;;;;;2.40;1.58;;;21.90;50.00;;;;;;5041189;28;20032;-61
2024/01/10 11:02:45;;;;;;;3.85;2.00;;;21.90;50.20;;;;;;5040507;28;20151;-61
2024/01/10 11:05:11;;;;;;;3.80;2.60;;;21.80;48.80;;;;;;5041227;28;20118;-63
2024/01/10 11:07:42;;;;;;;4.05;2.80;;;21.80;47.50;;;;;;5040043;28;20032;-61
2024/01/10 11:10:26;;;;;;;3.40;2.33;;;21.70;46.10;;;;;;5037177;28;20025;-62
2024/01/10 11:13:02;;;;;;;3.45;2.50;;;21.70;46.00;;;;;;5037418;28;20036;-62
2024/01/10 11:15:59;;;;;;;4.28;2.80;;;21.60;45.60;;;;;;5040885;28;20397;-62
2024/01/10 11:18:48;;;;;;;4.00;2.67;;;21.60;45.50;;;;;;5039474;28;20025;-62
2024/01/10 11:21:28;;;;;;;3.88;2.78;;;21.60;45.50;;;;;;5041598;28;20377;-63
2024/01/10 11:23:59;;;;;;;4.55;2.83;;;21.50;45.40;;;;;;5036617;28;20048;-62
2024/01/10 11:26:26;;;;;;;3.10;2.22;;;21.50;45.40;;;;;;5040722;28;20104;-62
2024/01/10 11:28:52;;;;;;;2.72;2.05;;;21.50;46.70;;;;;;5039592;28;20024;-62
2024/01/10 11:31:29;;;;;;;3.85;2.63;;;21.60;46.20;;;;;;5038733;28;20017;-63
2024/01/10 11:33:56;;;;;;;3.20;2.10;;;21.80;46.40;;;;;;5039104;28;20536;-63
2024/01/10 11:36:25;;;;;;;2.80;1.70;;;22.00;46.50;;;;;;5039817;28;20040;-64
2024/01/10 11:38:54;;;;;;;2.70;1.77;;;22.10;47.10;;;;;;5036176;28;20389;-62
2024/01/10 11:41:21;;;;;;;;;;;22.20;46.50;;;;;;5037561;28;20155;-63
2024/01/10 11:44:18;;;;;;;2.72;2.00;;;22.40;46.10;;;;;;5038196;28;19917;-65
2024/01/10 11:46:50;;;;;;;4.30;2.72;;;22.60;45.90;;;;;;5039262;28;20021;-64
2024/01/10 11:49:18;;;;;;;3.33;2.33;;;22.70;45.60;;;;;;5037230;28;20104;-64
2024/01/10 11:51:56;;;;;;;3.25;2.10;;;22.80;45.50;;;;;;5042790;28;20017;-64
2024/01/10 11:54:41;;;;;;;3.50;2.40;;;23.00;45.30;;;;;;5039602;28;20045;-64
2024/01/10 11:57:12;;;;;;;2.47;1.90;;;23.00;43.70;;;;;;5038428;28;20102;-64
2024/01/10 11:59:40;;;;;;;2.90;1.88;;;22.70;44.60;;;;;;5038063;28;20030;-64
2024/01/10 12:02:08;;;;;;;2.05;1.60;;;22.60;45.20;;;;;;5039180;28;20028;-64
2024/01/10 12:04:34;;;;;;;2.60;1.80;;;22.50;45.60;;;;;;5038478;28;20025;-64
2024/01/10 12:07:02;;;;;;;2.63;1.50;;;22.40;46.00;;;;;;5041140;28;20029;-66
2024/01/10 12:09:28;;;;;;;2.40;1.60;;;22.30;46.20;;;;;;5039590;28;20100;-64
2024/01/10 12:11:53;;;;;;;2.33;1.73;;;22.30;46.40;;;;;;5039069;28;20096;-65
2024/01/10 12:14:20;;;;;;;2.75;1.58;;;22.30;46.50;;;;;;5038195;28;20032;-64
2024/01/10 12:16:46;;;;;;;2.92;1.85;;;22.20;46.70;;;;;;5041861;28;20456;-64
2024/01/10 12:19:12;;;;;;;2.22;1.60;;;22.20;46.80;;;;;;5039922;28;20482;-64
2024/01/10 12:21:38;;;;;;;2.75;1.83;;;22.20;46.90;;;;;;5040524;28;20026;-64
2024/01/10 12:24:05;;;;;;;2.45;1.60;;;22.20;47.00;;;;;;5037683;28;20547;-65
2024/01/10 12:26:31;;;;;;;2.60;1.60;;;22.10;46.80;;;;;;5040338;28;20022;-64
2024/01/10 12:28:58;;;;;;;2.47;1.60;;;22.10;46.90;;;;;;5036037;28;20359;-64
2024/01/10 12:31:32;;;;;;;2.75;1.85;;;22.10;47.10;;;;;;5039406;28;20507;-64
2024/01/10 12:34:01;;;;;;;2.75;1.63;;;22.00;47.00;;;;;;5038115;28;20064;-64
2024/01/10 12:36:27;;;;;;;3.10;1.70;;;22.00;47.00;;;;;;5039128;28;20041;-65
2024/01/10 12:38:52;;;;;;;2.60;1.70;;;22.00;47.00;;;;;;5037740;28;20037;-64
2024/01/10 12:41:19;;;;;;;2.35;1.60;;;22.00;47.20;;;;;;5040156;28;20025;-64
2024/01/10 12:43:55;;;;;;;3.40;1.77;;;22.00;47.10;;;;;;5035455;28;20090;-66
2024/01/10 12:46:21;;;;;;;2.33;1.60;;;22.00;47.10;;;;;;5037678;28;20393;-64